createdAt,value
2023-02-17T00:00:57.362Z,97098.78
2023-02-17T00:06:13.450Z,97107.13
2023-02-17T00:08:41.305Z,97100.66
2023-02-17T00:11:09.391Z,97104.69
2023-02-17T00:13:37.400Z,97095.56
2023-02-17T00:16:08.489Z,97099.84
2023-02-17T00:18:36.863Z,97107.38
2023-02-17T00:21:15.575Z,97093.41
2023-02-17T00:23:43.553Z,97103.34
2023-02-17T00:26:11.835Z,97097.94
2023-02-17T00:28:40.231Z,97104.38
2023-02-17T00:31:09.665Z,97107.34
2023-02-17T00:33:38.195Z,97101.44
2023-02-17T00:36:07.970Z,97103.31
2023-02-17T00:38:37.193Z,97101.13
2023-02-17T00:41:05.498Z,97104.91
2023-02-17T00:43:33.916Z,97107.84
2023-02-17T00:46:04.190Z,97105.44
2023-02-17T00:48:32.643Z,97097.59
2023-02-17T00:51:00.553Z,97097.06
2023-02-17T00:53:28.487Z,97088.97
2023-02-17T00:55:57.712Z,97095.41
2023-02-17T00:58:26.284Z,97088.13
2023-02-17T01:00:56.041Z,97092.72
2023-02-17T01:03:24.319Z,97094.88
2023-02-17T01:05:52.697Z,97090.59
2023-02-17T01:08:20.694Z,97093.78
2023-02-17T01:10:49.760Z,97101.31
2023-02-17T01:13:19.726Z,97097.81
2023-02-17T01:15:51.371Z,97106.41
2023-02-17T01:18:20.890Z,97111.50
2023-02-17T01:20:50.441Z,97105.59
2023-02-17T01:23:18.479Z,97098.56
2023-02-17T01:25:49.016Z,97091.59
2023-02-17T01:28:20.944Z,97097.47
2023-02-17T01:30:49.470Z,97089.66
2023-02-17T01:33:17.394Z,97098.00
2023-02-17T01:35:46.445Z,97101.50
2023-02-17T01:38:14.304Z,97099.91
2023-02-17T01:40:47.898Z,97107.72
2023-02-17T01:43:19.002Z,97100.16
2023-02-17T01:45:53.279Z,97095.06
2023-02-17T01:48:23.867Z,97097.19
2023-02-17T01:50:56.588Z,97085.09
2023-02-17T01:53:30.605Z,97092.66
2023-02-17T01:55:58.550Z,97084.00
2023-02-17T01:58:29.196Z,97077.03
2023-02-17T02:01:00.967Z,97078.63
2023-02-17T02:03:31.468Z,97072.97
2023-02-17T02:06:01.299Z,97073.50
2023-02-17T02:08:31.933Z,97066.50
2023-02-17T02:10:59.748Z,97063.25
2023-02-17T02:13:29.730Z,97065.44
2023-02-17T02:16:08.172Z,97068.13
2023-02-17T02:18:50.059Z,97057.34
2023-02-17T02:21:36.504Z,97048.97
2023-02-17T02:24:18.756Z,97037.66
2023-02-17T02:27:29.626Z,97037.59
2023-02-17T02:30:24.100Z,97036.25
2023-02-17T02:33:00.830Z,97038.66
2023-02-17T02:35:35.518Z,97029.78
2023-02-17T02:38:11.130Z,97035.97
2023-02-17T02:40:44.105Z,97038.13
2023-02-17T02:43:14.332Z,97029.22
2023-02-17T02:45:42.776Z,97025.69
2023-02-17T02:48:12.184Z,97025.16
2023-02-17T02:51:00.949Z,97027.03
2023-02-17T02:53:51.642Z,97032.94
2023-02-17T02:56:31.216Z,97026.22
2023-02-17T02:59:08.026Z,97016.75
2023-02-17T03:01:42.073Z,97022.38
2023-02-17T03:04:15.873Z,97017.50
2023-02-17T03:06:49.985Z,97014.00
2023-02-17T03:09:22.737Z,97012.66
2023-02-17T03:11:51.208Z,97006.22
2023-02-17T03:14:21.872Z,97003.00
2023-02-17T03:16:51.340Z,97009.47
2023-02-17T03:19:24.749Z,97008.38
2023-02-17T03:21:58.062Z,97005.38
2023-02-17T03:24:25.941Z,97005.66
2023-02-17T03:26:54.046Z,96997.88
2023-02-17T03:29:21.934Z,97000.56
2023-02-17T03:31:49.933Z,97006.22
2023-02-17T03:34:18.050Z,96998.94
2023-02-17T03:36:47.368Z,96998.69
2023-02-17T03:39:15.229Z,97002.69
2023-02-17T03:41:43.072Z,96999.13
2023-02-17T03:44:11.238Z,97001.31
2023-02-17T03:46:40.080Z,96984.84
2023-02-17T03:49:07.908Z,97001.28
2023-02-17T03:51:35.705Z,97006.13
2023-02-17T03:54:05.067Z,96994.78
2023-02-17T03:56:33.287Z,96995.88
2023-02-17T03:59:01.143Z,96995.38
2023-02-17T04:01:29.090Z,96998.06
2023-02-17T04:03:57.183Z,96999.38
2023-02-17T04:06:25.069Z,96993.16
2023-02-17T04:08:52.900Z,96997.44
2023-02-17T04:11:22.231Z,96994.75
2023-02-17T04:13:50.039Z,96997.44
2023-02-17T04:16:18.371Z,97002.84
2023-02-17T04:18:46.681Z,96993.16
2023-02-17T04:21:14.529Z,96987.41
2023-02-17T04:23:42.397Z,96992.00
2023-02-17T04:26:10.840Z,96990.13
2023-02-17T04:28:41.636Z,96992.81
2023-02-17T04:31:10.080Z,96992.56
2023-02-17T04:33:38.645Z,96989.84
2023-02-17T04:36:07.339Z,96989.25
2023-02-17T04:38:38.433Z,96982.81
2023-02-17T04:41:07.585Z,96992.50
2023-02-17T04:43:35.534Z,96994.66
2023-02-17T04:46:05.416Z,96990.25
2023-02-17T04:48:33.443Z,96990.00
2023-02-17T04:51:01.198Z,96982.97
2023-02-17T04:53:29.114Z,96977.22
2023-02-17T04:55:56.934Z,96977.72
2023-02-17T04:58:24.754Z,96984.81
2023-02-17T05:00:52.567Z,96974.81
2023-02-17T05:03:22.056Z,96975.91
2023-02-17T05:05:50.690Z,96976.13
2023-02-17T05:08:18.478Z,96971.81
2023-02-17T05:10:46.377Z,96974.81
2023-02-17T05:13:14.682Z,96974.22
2023-02-17T05:15:44.660Z,96972.88
2023-02-17T05:18:12.752Z,96979.31
2023-02-17T05:20:42.269Z,96969.75
2023-02-17T05:23:10.074Z,96967.41
2023-02-17T05:25:37.957Z,96977.72
2023-02-17T05:28:05.866Z,96974.00
2023-02-17T05:30:33.912Z,96975.13
2023-02-17T05:33:01.898Z,96978.69
2023-02-17T05:35:29.715Z,96974.94
2023-02-17T05:37:58.900Z,96980.38
2023-02-17T05:40:26.780Z,96978.03
2023-02-17T05:42:54.612Z,96971.53
2023-02-17T05:45:22.644Z,96971.53
2023-02-17T05:47:50.480Z,96970.97
2023-02-17T05:50:18.476Z,96976.63
2023-02-17T05:52:46.399Z,96979.25
2023-02-17T05:55:15.758Z,96983.03
2023-02-17T05:57:43.595Z,96992.16
2023-02-17T06:00:12.663Z,96989.19
2023-02-17T06:02:40.696Z,96992.34
2023-02-17T06:05:09.488Z,96993.97
2023-02-17T06:07:37.336Z,96989.66
2023-02-17T06:10:05.748Z,96999.34
2023-02-17T06:12:34.929Z,96999.09
2023-02-17T06:15:03.059Z,96992.34
2023-02-17T06:17:31.395Z,96995.59
2023-02-17T06:19:59.316Z,96992.34
2023-02-17T06:22:27.209Z,96995.00
2023-02-17T06:24:55.004Z,96999.59
2023-02-17T06:27:22.874Z,96990.94
2023-02-17T06:29:52.041Z,96984.47
2023-02-17T06:32:19.859Z,96992.25
2023-02-17T06:34:47.682Z,96983.91
2023-02-17T06:37:15.523Z,96987.09
2023-02-17T06:39:43.346Z,96988.44
2023-02-17T06:42:11.173Z,96989.00
2023-02-17T06:44:38.991Z,96994.28
2023-02-17T06:47:08.138Z,96993.72
2023-02-17T06:49:35.923Z,97005.81
2023-02-17T06:52:03.734Z,97000.72
2023-02-17T06:54:31.561Z,97002.31
2023-02-17T06:56:59.301Z,97009.06
2023-02-17T06:59:27.116Z,96996.66
2023-02-17T07:01:55.005Z,96998.50
2023-02-17T07:04:24.193Z,96994.94
2023-02-17T07:06:52.624Z,97001.09
2023-02-17T07:09:20.467Z,96994.59
2023-02-17T07:11:48.345Z,97005.31
2023-02-17T07:14:16.095Z,97001.53
2023-02-17T07:16:43.923Z,97000.47
2023-02-17T07:19:11.746Z,97001.25
2023-02-17T07:21:40.922Z,97000.16
2023-02-17T07:24:09.058Z,97002.06
2023-02-17T07:26:37.846Z,96993.22
2023-02-17T07:29:06.411Z,96996.13
2023-02-17T07:31:35.066Z,96994.78
2023-02-17T07:34:03.551Z,96997.72
2023-02-17T07:36:31.868Z,97007.34
2023-02-17T07:39:00.985Z,97008.94
2023-02-17T07:41:30.604Z,97011.94
2023-02-17T07:43:59.949Z,97007.56
2023-02-17T07:46:28.603Z,97007.84
2023-02-17T07:48:57.898Z,97007.56
2023-02-17T07:51:26.004Z,97009.34
2023-02-17T07:53:54.947Z,97017.38
2023-02-17T07:56:24.723Z,97019.72
2023-02-17T07:58:52.517Z,97018.84
2023-02-17T08:01:22.819Z,97021.00
2023-02-17T08:03:51.816Z,97023.69
2023-02-17T08:06:22.395Z,97026.41
2023-02-17T08:09:08.248Z,97029.09
2023-02-17T08:11:54.876Z,97024.25
2023-02-17T08:14:23.650Z,97029.09
2023-02-17T08:16:51.770Z,97028.22
2023-02-17T08:19:19.672Z,97024.66
2023-02-17T08:21:47.878Z,97025.69
2023-02-17T08:24:16.515Z,97027.22
2023-02-17T08:26:45.808Z,97030.94
2023-02-17T08:29:13.711Z,97031.97
2023-02-17T08:31:42.712Z,97033.66
2023-02-17T08:34:13.048Z,97033.19
2023-02-17T08:36:40.961Z,97029.19
2023-02-17T08:39:15.781Z,97042.41
2023-02-17T08:41:45.663Z,97034.81
2023-02-17T08:44:15.238Z,97039.13
2023-02-17T08:46:43.727Z,97043.13
2023-02-17T08:49:12.211Z,97036.06
2023-02-17T08:51:40.075Z,97046.00
2023-02-17T08:54:10.286Z,97050.81
2023-02-17T08:56:39.789Z,97039.38
2023-02-17T08:59:10.751Z,97039.81
2023-02-17T09:01:39.588Z,97039.47
2023-02-17T09:04:09.482Z,97053.41
2023-02-17T09:06:40.194Z,97042.84
2023-02-17T09:09:10.697Z,97041.22
2023-02-17T09:11:39.178Z,97042.84
2023-02-17T09:14:09.650Z,97049.75
2023-02-17T09:16:40.363Z,97057.53
2023-02-17T09:19:09.220Z,97056.78
2023-02-17T09:21:37.569Z,97056.81
2023-02-17T09:24:05.982Z,97058.66
2023-02-17T09:26:35.019Z,97062.44
2023-02-17T09:29:03.805Z,97059.75
2023-02-17T09:31:35.179Z,97066.97
2023-02-17T09:34:03.927Z,97059.66
2023-02-17T09:36:34.702Z,97060.38
2023-02-17T09:39:02.707Z,97056.28
2023-02-17T09:41:38.815Z,97062.38
2023-02-17T09:44:08.978Z,97067.22
2023-02-17T09:46:59.464Z,97066.22
2023-02-17T09:49:35.963Z,97063.19
2023-02-17T09:52:10.454Z,97065.63
2023-02-17T09:54:45.105Z,97070.81
2023-02-17T09:57:19.680Z,97079.69
2023-02-17T09:59:51.659Z,97089.19
2023-02-17T10:02:28.325Z,97072.75
2023-02-17T10:05:02.045Z,97065.81
2023-02-17T10:07:34.897Z,97062.09
2023-02-17T10:10:08.925Z,97074.66
2023-02-17T10:12:41.456Z,97064.09
2023-02-17T10:15:17.866Z,97050.59
2023-02-17T10:17:52.776Z,97046.31
2023-02-17T10:20:24.822Z,97048.16
2023-02-17T10:22:56.307Z,97054.38
2023-02-17T10:25:34.891Z,97060.00
2023-02-17T10:28:10.340Z,97064.81
2023-02-17T10:30:49.308Z,97053.16
2023-02-17T10:33:27.430Z,97062.50
2023-02-17T10:36:00.226Z,97057.69
2023-02-17T10:38:43.667Z,97039.47
2023-02-17T10:41:17.072Z,97047.44
2023-02-17T10:43:46.107Z,97053.00
2023-02-17T10:46:16.478Z,97046.34
2023-02-17T10:48:48.871Z,97048.50
2023-02-17T10:51:21.208Z,97047.50
2023-02-17T10:53:54.268Z,97048.75
2023-02-17T10:56:27.125Z,97042.16
2023-02-17T10:59:02.864Z,97048.22
2023-02-17T11:01:30.620Z,97041.81
2023-02-17T11:04:06.365Z,97051.31
2023-02-17T11:06:39.382Z,97044.56
2023-02-17T11:09:18.139Z,97044.03
2023-02-17T11:11:56.376Z,97045.09
2023-02-17T11:14:28.358Z,97031.94
2023-02-17T11:16:59.323Z,97031.25
2023-02-17T11:19:30.958Z,97033.28
2023-02-17T11:22:00.574Z,97030.78
2023-02-17T11:24:29.837Z,97027.69
2023-02-17T11:27:02.220Z,97029.91
2023-02-17T11:29:30.911Z,97020.13
2023-02-17T11:32:00.874Z,97020.03
2023-02-17T11:34:33.124Z,97027.69
2023-02-17T11:37:03.030Z,97011.38
2023-02-17T11:39:31.060Z,97020.34
2023-02-17T11:41:58.910Z,97025.56
2023-02-17T11:44:28.642Z,97014.22
2023-02-17T11:47:09.684Z,97008.94
2023-02-17T11:49:51.620Z,97001.91
2023-02-17T11:52:33.538Z,97005.78
2023-02-17T11:55:16.805Z,97000.53
2023-02-17T11:57:53.051Z,97004.84
2023-02-17T12:00:22.944Z,97008.56
2023-02-17T12:03:19.018Z,97009.66
2023-02-17T12:06:00.845Z,97007.09
2023-02-17T12:08:41.193Z,96996.41
2023-02-17T12:11:20.174Z,97005.97
2023-02-17T12:14:02.524Z,97002.78
2023-02-17T12:16:41.233Z,96989.69
2023-02-17T12:19:30.749Z,96987.38
2023-02-17T12:22:08.571Z,96986.97
2023-02-17T12:24:47.667Z,96986.03
2023-02-17T12:27:27.735Z,96989.34
2023-02-17T12:30:07.636Z,96987.69
2023-02-17T12:32:54.563Z,96986.78
2023-02-17T12:35:26.348Z,96984.56
2023-02-17T12:37:59.610Z,96992.13
2023-02-17T12:40:35.394Z,96990.06
2023-02-17T12:43:09.553Z,96988.75
2023-02-17T12:45:41.966Z,96991.47
2023-02-17T12:48:15.710Z,96988.09
2023-02-17T12:50:55.884Z,96995.16
2023-02-17T12:53:36.043Z,97000.66
2023-02-17T12:56:09.343Z,96995.09
2023-02-17T12:58:37.287Z,96993.50
2023-02-17T13:01:10.428Z,96980.91
2023-02-17T13:03:38.639Z,96989.41
2023-02-17T13:06:18.886Z,96978.34
2023-02-17T13:08:54.566Z,96978.19
2023-02-17T13:11:28.605Z,96980.72
2023-02-17T13:13:56.415Z,96990.09
2023-02-17T13:16:24.421Z,96983.38
2023-02-17T13:18:53.406Z,96982.84
2023-02-17T13:21:33.048Z,96980.44
2023-02-17T13:24:07.081Z,96979.75
2023-02-17T13:26:36.343Z,96974.53
2023-02-17T13:29:23.003Z,96974.84
2023-02-17T13:31:55.987Z,96984.06
2023-02-17T13:34:30.095Z,96976.13
2023-02-17T13:37:00.126Z,96986.97
2023-02-17T13:39:39.088Z,96980.88
2023-02-17T13:42:34.695Z,96980.06
2023-02-17T13:45:03.114Z,96982.47
2023-02-17T13:47:37.731Z,96985.78
2023-02-17T13:50:07.261Z,96990.28
2023-02-17T13:52:35.149Z,96978.97
2023-02-17T13:55:06.850Z,96988.22
2023-02-17T13:57:37.753Z,96990.94
2023-02-17T14:00:10.832Z,96991.13
2023-02-17T14:02:48.483Z,96988.09
2023-02-17T14:05:21.104Z,96991.59
2023-02-17T14:07:50.073Z,96973.59
2023-02-17T14:10:23.395Z,96968.03
2023-02-17T14:12:51.813Z,96968.69
2023-02-17T14:15:22.470Z,96978.81
2023-02-17T14:17:50.274Z,96974.19
2023-02-17T14:20:33.017Z,96979.28
2023-02-17T14:23:04.766Z,96983.00
2023-02-17T14:25:36.160Z,96974.00
2023-02-17T14:28:04.496Z,96977.50
2023-02-17T14:30:34.541Z,96972.88
2023-02-17T14:33:04.791Z,96974.97
2023-02-17T14:35:35.226Z,96974.50
2023-02-17T14:38:20.750Z,96978.44
2023-02-17T14:40:50.222Z,96979.75
2023-02-17T14:43:18.383Z,96973.34
2023-02-17T14:45:46.316Z,96974.94
2023-02-17T14:48:14.085Z,96966.72
2023-02-17T14:50:44.118Z,96976.63
2023-02-17T14:53:19.248Z,96986.97
2023-02-17T14:55:53.355Z,96974.53
2023-02-17T14:58:23.398Z,96979.56
2023-02-17T15:00:52.823Z,96978.75
2023-02-17T15:03:20.570Z,96966.00
2023-02-17T15:05:48.965Z,96969.97
2023-02-17T15:08:19.585Z,96967.44
2023-02-17T15:10:47.564Z,96971.06
2023-02-17T15:13:20.146Z,96965.00
2023-02-17T15:15:49.383Z,96952.69
2023-02-17T15:18:19.165Z,96952.69
2023-02-17T15:20:49.565Z,96944.19
2023-02-17T15:23:19.478Z,96955.16
2023-02-17T15:25:49.249Z,96961.53
2023-02-17T15:28:19.990Z,96954.31
2023-02-17T15:30:54.361Z,96956.31
2023-02-17T15:33:26.403Z,96957.66
2023-02-17T15:35:55.506Z,96960.38
2023-02-17T15:38:26.915Z,96950.94
2023-02-17T15:40:56.854Z,96939.72
2023-02-17T15:46:14.200Z,96956.22
2023-02-17T15:48:42.818Z,96947.28
2023-02-17T15:51:13.116Z,96943.88
2023-02-17T15:53:41.010Z,96937.94
2023-02-17T15:56:20.559Z,96933.75
2023-02-17T15:58:53.113Z,96933.22
2023-02-17T16:01:27.974Z,96940.25
2023-02-17T16:03:56.418Z,96946.66
2023-02-17T16:06:24.288Z,96924.09
2023-02-17T16:08:52.072Z,96939.06
2023-02-17T16:11:22.321Z,96935.06
2023-02-17T16:13:52.410Z,96943.81
2023-02-17T16:16:22.962Z,96940.78
2023-02-17T16:18:51.752Z,96940.56
2023-02-17T16:21:19.599Z,96946.31
2023-02-17T16:23:47.595Z,96939.38
2023-02-17T16:26:22.496Z,96944.91
2023-02-17T16:28:51.713Z,96944.09
2023-02-17T16:31:19.645Z,96944.22
2023-02-17T16:33:47.433Z,96939.91
2023-02-17T16:36:17.384Z,96940.00
2023-02-17T16:38:45.927Z,96939.50
2023-02-17T16:41:15.037Z,96949.84
2023-02-17T16:43:43.400Z,96949.13
2023-02-17T16:46:21.474Z,96952.66
2023-02-17T16:48:49.339Z,96971.69
2023-02-17T16:51:17.130Z,96963.47
2023-02-17T16:53:44.849Z,96967.09
2023-02-17T16:56:19.678Z,96962.16
2023-02-17T16:58:47.435Z,96960.34
2023-02-17T17:01:16.541Z,96964.16
2023-02-17T17:03:44.349Z,96966.66
2023-02-17T17:06:21.715Z,96974.28
2023-02-17T17:08:50.218Z,96958.53
2023-02-17T17:11:19.697Z,96970.00
2023-02-17T17:13:47.746Z,96971.38
2023-02-17T17:16:20.529Z,96981.31
2023-02-17T17:18:48.433Z,96984.31
2023-02-17T17:21:18.634Z,96981.94
2023-02-17T17:23:47.334Z,96979.22
2023-02-17T17:26:22.667Z,96983.31
2023-02-17T17:28:50.538Z,96991.75
2023-02-17T17:31:21.152Z,96985.59
2023-02-17T17:33:50.103Z,96992.13
2023-02-17T17:36:23.459Z,96992.50
2023-02-17T17:38:52.016Z,96992.31
2023-02-17T17:41:20.676Z,96997.22
2023-02-17T17:43:49.669Z,96990.97
2023-02-17T17:46:21.160Z,96989.38
2023-02-17T17:48:49.790Z,96987.06
2023-02-17T17:51:19.219Z,96992.97
2023-02-17T17:53:47.358Z,96986.53
2023-02-17T17:56:17.373Z,96993.38
2023-02-17T17:58:45.556Z,96975.44
2023-02-17T18:01:14.646Z,96974.03
2023-02-17T18:03:44.139Z,96966.44
2023-02-17T18:06:15.914Z,96958.81
2023-02-17T18:08:44.790Z,96961.63
2023-02-17T18:11:14.886Z,96961.63
2023-02-17T18:13:43.145Z,96965.63
2023-02-17T18:16:11.043Z,96970.53
2023-02-17T18:18:39.019Z,96974.03
2023-02-17T18:21:08.348Z,96962.19
2023-02-17T18:23:36.112Z,96964.31
2023-02-17T18:26:05.300Z,96962.81
2023-02-17T18:28:35.026Z,96964.91
2023-02-17T18:31:08.171Z,96970.41
2023-02-17T18:33:36.067Z,96976.34
2023-02-17T18:36:09.488Z,96976.13
2023-02-17T18:38:37.536Z,96979.41
2023-02-17T18:41:06.320Z,96976.50
2023-02-17T18:43:34.519Z,96972.78
2023-02-17T18:46:02.448Z,96970.88
2023-02-17T18:48:30.236Z,96971.16
2023-02-17T18:50:58.077Z,96976.06
2023-02-17T18:53:27.375Z,96981.78
2023-02-17T18:55:55.163Z,96972.28
2023-02-17T18:58:23.120Z,96986.31
2023-02-17T19:00:50.941Z,96986.59
2023-02-17T19:03:22.165Z,97000.72
2023-02-17T19:05:50.281Z,97009.91
2023-02-17T19:08:18.132Z,97011.25
2023-02-17T19:10:47.336Z,96999.03
2023-02-17T19:13:15.040Z,97010.84
2023-02-17T19:15:42.840Z,97006.28
2023-02-17T19:18:10.606Z,97003.47
2023-02-17T19:20:38.350Z,97010.72
2023-02-17T19:23:06.064Z,97008.00
2023-02-17T19:25:33.886Z,97008.19
2023-02-17T19:28:03.019Z,97001.69
2023-02-17T19:30:30.876Z,97000.59
2023-02-17T19:32:58.662Z,96997.09
2023-02-17T19:35:26.414Z,96996.47
2023-02-17T19:37:54.147Z,96993.50
2023-02-17T19:40:21.910Z,96992.69
2023-02-17T19:42:49.635Z,96985.06
2023-02-17T19:45:18.889Z,96986.47
2023-02-17T19:47:46.655Z,96987.28
2023-02-17T19:50:17.197Z,96997.38
2023-02-17T19:52:45.327Z,96999.09
2023-02-17T19:55:13.312Z,97009.91
2023-02-17T19:57:41.055Z,97008.28
2023-02-17T20:00:10.687Z,97018.91
2023-02-17T20:02:39.900Z,97032.13
2023-02-17T20:05:08.468Z,97026.72
2023-02-17T20:07:36.450Z,97016.69
2023-02-17T20:10:06.123Z,97026.63
2023-02-17T20:12:33.866Z,97033.38
2023-02-17T20:15:01.626Z,97020.03
2023-02-17T20:17:29.443Z,97029.75
2023-02-17T20:19:59.531Z,97034.28
2023-02-17T20:22:27.445Z,97031.56
2023-02-17T20:24:55.242Z,97031.41
2023-02-17T20:27:23.002Z,97030.00
2023-02-17T20:29:50.799Z,97037.84
2023-02-17T20:32:18.611Z,97039.94
2023-02-17T20:34:46.506Z,97040.81
2023-02-17T20:37:15.644Z,97046.25
2023-02-17T20:39:43.471Z,97041.63
2023-02-17T20:42:11.294Z,97043.44
2023-02-17T20:44:39.210Z,97041.03
2023-02-17T20:47:07.579Z,97048.84
2023-02-17T20:49:36.239Z,97061.81
2023-02-17T20:52:05.715Z,97056.69
2023-02-17T20:54:34.882Z,97054.47
2023-02-17T20:57:02.785Z,97052.31
2023-02-17T20:59:30.535Z,97055.50
2023-02-17T21:01:58.282Z,97065.53
2023-02-17T21:04:26.007Z,97054.91
2023-02-17T21:06:53.772Z,97055.50
2023-02-17T21:09:21.512Z,97060.13
2023-02-17T21:11:50.652Z,97060.44
2023-02-17T21:14:18.631Z,97067.22
2023-02-17T21:16:46.514Z,97075.94
2023-02-17T21:19:14.352Z,97072.16
2023-02-17T21:21:42.109Z,97083.47
2023-02-17T21:24:10.020Z,97085.16
2023-02-17T21:26:37.822Z,97089.53
2023-02-17T21:29:07.313Z,97082.84
2023-02-17T21:31:36.017Z,97091.53
2023-02-17T21:34:04.358Z,97088.53
2023-02-17T21:36:32.152Z,97087.72
2023-02-17T21:38:59.993Z,97090.16
2023-02-17T21:41:30.183Z,97092.56
2023-02-17T21:44:15.255Z,97101.78
2023-02-17T21:46:45.261Z,97099.56
2023-02-17T21:49:13.695Z,97097.66
2023-02-17T21:51:42.619Z,97100.69
2023-02-17T21:54:11.010Z,97104.69
2023-02-17T21:56:39.014Z,97099.06
2023-02-17T21:59:07.309Z,97103.16
2023-02-17T22:01:35.396Z,97092.13
2023-02-17T22:04:04.721Z,97105.94
2023-02-17T22:06:35.047Z,97101.13
2023-02-17T22:09:03.233Z,97096.00
2023-02-17T22:11:32.920Z,97105.50
2023-02-17T22:14:03.024Z,97101.19
2023-02-17T22:16:32.574Z,97105.09
2023-02-17T22:19:00.453Z,97099.69
2023-02-17T22:21:30.233Z,97106.78
2023-02-17T22:23:58.825Z,97098.34
2023-02-17T22:26:28.546Z,97102.97
2023-02-17T22:28:56.616Z,97105.75
2023-02-17T22:31:26.921Z,97097.13
2023-02-17T22:33:56.891Z,97097.22
2023-02-17T22:36:25.173Z,97098.25
2023-02-17T22:38:55.068Z,97093.41
2023-02-17T22:41:25.647Z,97097.22
2023-02-17T22:43:54.367Z,97104.56
2023-02-17T22:46:24.260Z,97086.25
2023-02-17T22:48:52.747Z,97099.75
2023-02-17T22:51:23.172Z,97099.31
2023-02-17T22:53:51.211Z,97097.72
2023-02-17T22:56:20.995Z,97096.69
2023-02-17T22:58:50.439Z,97088.06
2023-02-17T23:01:20.820Z,97088.06
2023-02-17T23:03:52.309Z,97091.34
2023-02-17T23:06:24.729Z,97095.44
2023-02-17T23:08:52.750Z,97089.44
2023-02-17T23:11:44.375Z,97095.72
2023-02-17T23:14:13.740Z,97097.84
2023-02-17T23:16:41.653Z,97096.44
2023-02-17T23:19:10.794Z,97099.97
2023-02-17T23:21:39.409Z,97105.09
2023-02-17T23:24:07.793Z,97108.81
2023-02-17T23:26:36.917Z,97105.31
2023-02-17T23:29:04.770Z,97107.72
2023-02-17T23:31:34.036Z,97106.94
2023-02-17T23:34:01.892Z,97101.22
2023-02-17T23:36:29.728Z,97101.75
2023-02-17T23:38:58.896Z,97105.03
2023-02-17T23:41:27.197Z,97104.72
2023-02-17T23:43:56.303Z,97104.16
2023-02-17T23:46:24.344Z,97104.38
2023-02-17T23:48:52.246Z,97102.75
2023-02-17T23:51:20.534Z,97094.28
2023-02-17T23:53:48.404Z,97095.56
2023-02-17T23:56:19.466Z,97091.28
2023-02-17T23:58:47.343Z,97089.59
